Time;durP1;ratioP1;P1;durP2;ratioP2;P2;SDS_P1;SDS_P2;PMS_P1;PMS_P2;Temp;Humidity;BMP_temperature;BMP_pressure;BME280_temperature;BME280_humidity;BME280_pressure;Samples;Min_cycle;Max_cycle;Signal;HPM_P1;HPM_P2
2023/04/10 00:01:12;;;;;;;;;;;14.90;80.80;;;;;;5115371;28;20361;-70
2023/04/10 00:03:38;;;;;;;;;;;14.90;80.90;;;;;;5115319;27;20316;-69
2023/04/10 00:06:04;;;;;;;;;;;14.90;80.90;;;;;;5114396;28;19933;-70
2023/04/10 00:08:29;;;;;;;;;;;14.90;80.90;;;;;;5115554;28;19908;-70
2023/04/10 00:10:55;;;;;;;;;;;14.90;80.90;;;;;;5115513;28;19912;-70
2023/04/10 00:13:21;;;;;;;;;;;14.80;80.90;;;;;;5115532;28;20346;-70
2023/04/10 00:15:47;;;;;;;;;;;14.90;81.00;;;;;;5115403;28;19915;-70
2023/04/10 00:18:12;;;;;;;;;;;14.90;81.00;;;;;;5115443;28;20380;-70
2023/04/10 00:20:38;;;;;;;;;;;14.80;81.00;;;;;;5114163;28;19953;-70
2023/04/10 00:23:03;;;;;;;;;;;14.80;81.00;;;;;;5114964;28;19922;-70
2023/04/10 00:25:29;;;;;;;;;;;14.80;81.10;;;;;;5115581;28;19914;-70
2023/04/10 00:27:54;;;;;;;;;;;14.80;81.10;;;;;;5115532;28;19915;-70
2023/04/10 00:30:20;;;;;;;;;;;14.80;81.60;;;;;;5115224;27;19908;-70
2023/04/10 00:32:46;;;;;;;;;;;14.80;81.20;;;;;;5114886;28;19911;-69
2023/04/10 00:35:11;;;;;;;;;;;14.70;81.20;;;;;;5113830;28;20324;-70
2023/04/10 00:37:37;;;;;;;;;;;14.70;81.20;;;;;;5115068;28;20002;-70
2023/04/10 00:40:03;;;;;;;;;;;14.70;81.30;;;;;;5113396;28;20370;-70
2023/04/10 00:42:28;;;;;;;;;;;14.70;81.80;;;;;;5114927;28;19924;-70
2023/04/10 00:44:54;;;;;;;;;;;14.70;81.30;;;;;;5114957;28;19912;-70
2023/04/10 00:47:20;;;;;;;;;;;14.70;81.40;;;;;;5115253;28;20330;-70
2023/04/10 00:49:45;;;;;;;;;;;14.70;81.40;;;;;;5114827;28;19959;-70
2023/04/10 00:52:11;;;;;;;;;;;14.70;81.40;;;;;;5114919;28;20312;-70
2023/04/10 00:54:37;;;;;;;;;;;14.60;81.40;;;;;;5113575;28;19908;-70
2023/04/10 00:57:03;;;;;;;;;;;14.60;81.40;;;;;;5114725;28;19914;-70
2023/04/10 00:59:29;;;;;;;;;;;14.70;81.50;;;;;;5114845;27;19947;-70
2023/04/10 01:01:55;;;;;;;;;;;14.60;81.40;;;;;;5114538;28;19976;-70
2023/04/10 01:04:21;;;;;;;;;;;14.60;81.40;;;;;;5114748;28;19919;-70
2023/04/10 01:07:10;;;;;;;;;;;14.60;81.50;;;;;;5113101;28;19955;-70
2023/04/10 01:09:41;;;;;;;;;;;14.60;81.50;;;;;;5095107;28;19969;-70
2023/04/10 01:12:15;;;;;;;;;;;14.60;81.50;;;;;;5113420;28;19915;-70
2023/04/10 01:14:46;;;;;;;;;;;14.60;81.50;;;;;;5115123;28;20308;-69
2023/04/10 01:17:16;;;;;;;;;;;14.60;81.50;;;;;;5113374;28;19931;-69
2023/04/10 01:20:00;;;;;;;;;;;14.60;81.60;;;;;;5114309;28;19911;-70
2023/04/10 01:22:33;;;;;;;;;;;14.60;81.60;;;;;;5113282;28;20289;-70
2023/04/10 01:24:59;;;;;;;;;;;14.60;81.60;;;;;;5114618;28;19919;-71
2023/04/10 01:27:30;;;;;;;;;;;14.60;81.60;;;;;;5114254;28;19908;-72
2023/04/10 01:29:57;;;;;;;;;;;14.60;81.60;;;;;;5114543;28;19919;-70
2023/04/10 01:32:23;;;;;;;;;;;14.60;81.60;;;;;;5117143;28;19915;-70
2023/04/10 01:34:49;;;;;;;;;;;14.50;81.60;;;;;;5118554;28;19908;-70
2023/04/10 01:37:23;;;;;;;;;;;14.60;81.60;;;;;;5118869;28;20342;-70
2023/04/10 01:39:53;;;;;;;;;;;14.50;81.60;;;;;;5118516;28;20010;-70
2023/04/10 01:42:19;;;;;;;;;;;14.60;81.70;;;;;;5118177;28;19975;-70
2023/04/10 01:44:45;;;;;;;;;;;14.50;81.70;;;;;;5118621;28;20424;-71
2023/04/10 01:47:11;;;;;;;;;;;14.50;81.70;;;;;;5118050;28;19911;-69
2023/04/10 01:49:41;;;;;;;;;;;14.50;81.70;;;;;;5118495;28;19908;-70
2023/04/10 01:52:07;;;;;;;;;;;14.50;81.70;;;;;;5117971;28;19908;-70
2023/04/10 01:54:33;;;;;;;;;;;14.50;81.70;;;;;;5116908;28;19908;-70
2023/04/10 01:56:59;;;;;;;;;;;14.50;81.70;;;;;;5116876;28;19914;-70
2023/04/10 01:59:25;;;;;;;;;;;14.50;81.70;;;;;;5118113;28;19912;-70
2023/04/10 02:01:57;;;;;;;;;;;14.50;81.70;;;;;;5117775;28;19907;-70
2023/04/10 02:04:22;;;;;;;;;;;14.50;81.70;;;;;;5117662;28;19961;-70
2023/04/10 02:06:59;;;;;;;;;;;14.50;81.70;;;;;;5117943;28;19912;-70
2023/04/10 02:09:44;;;;;;;;;;;14.50;81.70;;;;;;5118014;28;19908;-70
2023/04/10 02:12:12;;;;;;;;;;;14.50;81.80;;;;;;5116464;28;20252;-70
2023/04/10 02:14:40;;;;;;;;;;;14.40;81.70;;;;;;5117557;28;19998;-69
2023/04/10 02:17:07;;;;;;;;;;;14.50;81.80;;;;;;5117787;28;19957;-70
2023/04/10 02:19:33;;;;;;;;;;;14.50;81.90;;;;;;5117408;28;19912;-70
2023/04/10 02:21:59;;;;;;;;;;;14.40;81.80;;;;;;5117986;27;19914;-70
2023/04/10 02:24:24;;;;;;;;;;;14.40;81.80;;;;;;5116304;28;19912;-70
2023/04/10 02:26:51;;;;;;;;;;;14.40;81.80;;;;;;5117538;28;20013;-70
2023/04/10 02:29:17;;;;;;;;;;;14.40;81.90;;;;;;5117536;28;20243;-70
2023/04/10 02:31:43;;;;;;;;;;;14.40;81.90;;;;;;5117497;28;19914;-70
2023/04/10 02:34:09;;;;;;;;;;;14.40;81.90;;;;;;5117151;28;19933;-70
2023/04/10 02:36:35;;;;;;;;;;;14.40;81.90;;;;;;5117420;27;20456;-70
2023/04/10 02:39:01;;;;;;;;;;;14.40;81.90;;;;;;5117095;28;19911;-70
2023/04/10 02:41:26;;;;;;;;;;;14.40;81.90;;;;;;5116870;28;19907;-69
2023/04/10 02:43:52;;;;;;;;;;;14.40;81.90;;;;;;5116005;28;19998;-70
2023/04/10 02:46:17;;;;;;;;;;;14.40;81.90;;;;;;5116947;28;20336;-70
2023/04/10 02:48:44;;;;;;;;;;;14.40;81.90;;;;;;5116870;28;19907;-70
2023/04/10 02:51:09;;;;;;;;;;;14.40;82.00;;;;;;5116009;28;20330;-69
2023/04/10 02:53:35;;;;;;;;;;;14.40;82.00;;;;;;5115848;28;19947;-70
2023/04/10 02:56:01;;;;;;;;;;;14.40;82.00;;;;;;5117068;27;19908;-70
2023/04/10 02:58:26;;;;;;;;;;;14.30;82.00;;;;;;5116974;28;19960;-70
2023/04/10 03:00:52;;;;;;;;;;;14.30;82.00;;;;;;5115722;28;20371;-70
2023/04/10 03:03:18;;;;;;;;;;;14.30;82.00;;;;;;5116527;28;20341;-70
2023/04/10 03:05:48;;;;;;;;;;;14.40;82.00;;;;;;5116550;28;20056;-70
2023/04/10 03:08:14;;;;;;;;;;;14.30;82.00;;;;;;5115567;28;20011;-69
2023/04/10 03:10:42;;;;;;;;;;;14.30;82.00;;;;;;5116548;28;19947;-70
2023/04/10 03:13:07;;;;;;;;;;;14.30;82.00;;;;;;5116728;28;19908;-70
2023/04/10 03:15:33;;;;;;;;;;;14.30;82.10;;;;;;5116696;28;19915;-70
2023/04/10 03:17:58;;;;;;;;;;;14.30;82.10;;;;;;5116634;28;19914;-70
2023/04/10 03:20:23;;;;;;;;;;;14.30;82.10;;;;;;5116564;27;19915;-70
2023/04/10 03:22:49;;;;;;;;;;;14.30;82.10;;;;;;5116250;28;19911;-69
2023/04/10 03:25:15;;;;;;;;;;;14.20;82.10;;;;;;5116148;28;20366;-70
2023/04/10 03:27:40;;;;;;;;;;;14.30;82.20;;;;;;5116441;27;20366;-70
2023/04/10 03:30:06;;;;;;;;;;;14.30;82.20;;;;;;5116031;28;19911;-70
2023/04/10 03:32:32;;;;;;;;;;;14.20;82.20;;;;;;5115956;27;19912;-70
2023/04/10 03:34:58;;;;;;;;;;;14.20;82.20;;;;;;5116607;28;19930;-70
2023/04/10 03:37:24;;;;;;;;;;;14.20;82.30;;;;;;5116194;27;20342;-70
2023/04/10 03:39:49;;;;;;;;;;;14.20;82.30;;;;;;5114840;28;19914;-69
2023/04/10 03:42:15;;;;;;;;;;;14.20;82.30;;;;;;5114649;28;19923;-70
2023/04/10 03:44:40;;;;;;;;;;;14.20;82.30;;;;;;5114693;28;20290;-70
2023/04/10 03:47:06;;;;;;;;;;;14.20;82.30;;;;;;5115694;28;19908;-70
2023/04/10 03:49:31;;;;;;;;;;;14.20;82.30;;;;;;5115943;28;20274;-70
2023/04/10 03:51:57;;;;;;;;;;;14.20;82.30;;;;;;5114433;28;19912;-70
2023/04/10 03:54:22;;;;;;;;;;;14.20;82.30;;;;;;5115254;28;19908;-70
2023/04/10 03:56:47;;;;;;;;;;;14.20;82.30;;;;;;5115830;28;20320;-70
2023/04/10 03:59:13;;;;;;;;;;;14.20;82.30;;;;;;5114625;28;19908;-69
2023/04/10 04:01:38;;;;;;;;;;;14.20;82.40;;;;;;5116046;28;20304;-70
2023/04/10 04:04:04;;;;;;;;;;;14.20;82.30;;;;;;5114281;28;19925;-70
2023/04/10 04:06:30;;;;;;;;;;;14.20;82.30;;;;;;5115641;28;19912;-70
2023/04/10 04:08:56;;;;;;;;;;;14.20;82.30;;;;;;5115285;28;19918;-70
2023/04/10 04:11:21;;;;;;;;;;;14.20;82.30;;;;;;5115291;28;19912;-70
2023/04/10 04:13:47;;;;;;;;;;;14.10;82.20;;;;;;5114160;28;19908;-70
2023/04/10 04:16:12;;;;;;;;;;;14.20;82.30;;;;;;5115404;28;19912;-70
2023/04/10 04:18:38;;;;;;;;;;;14.20;82.30;;;;;;5115423;28;20436;-70
2023/04/10 04:21:03;;;;;;;;;;;14.20;82.30;;;;;;5115709;28;20406;-70
2023/04/10 04:23:29;;;;;;;;;;;14.20;82.30;;;;;;5115303;28;19935;-70
2023/04/10 04:25:55;;;;;;;;;;;14.20;82.30;;;;;;5115271;27;20010;-70
2023/04/10 04:28:21;;;;;;;;;;;14.10;82.20;;;;;;5114061;28;20015;-70
2023/04/10 04:30:46;;;;;;;;;;;14.20;82.30;;;;;;5115183;27;19907;-70
2023/04/10 04:33:12;;;;;;;;;;;14.20;82.30;;;;;;5114868;28;19908;-70
2023/04/10 04:35:37;;;;;;;;;;;14.10;82.30;;;;;;5113830;28;19951;-70
2023/04/10 04:38:03;;;;;;;;;;;14.10;82.30;;;;;;5113846;28;19922;-70
2023/04/10 04:40:28;;;;;;;;;;;14.10;82.30;;;;;;5114794;28;19907;-70
2023/04/10 04:42:54;;;;;;;;;;;14.10;82.30;;;;;;5114969;28;19973;-70
2023/04/10 04:45:20;;;;;;;;;;;14.10;82.30;;;;;;5115001;28;20425;-69
2023/04/10 04:47:46;;;;;;;;;;;14.10;82.30;;;;;;5115039;28;20354;-70
2023/04/10 04:50:11;;;;;;;;;;;14.10;82.30;;;;;;5115251;28;19915;-70
2023/04/10 04:52:37;;;;;;;;;;;14.10;82.40;;;;;;5114838;28;20002;-70
2023/04/10 04:55:02;;;;;;;;;;;14.10;82.40;;;;;;5114616;28;19908;-70
2023/04/10 04:57:28;;;;;;;;;;;14.10;82.40;;;;;;5114914;27;19914;-70
2023/04/10 04:59:53;;;;;;;;;;;14.10;82.40;;;;;;5113570;28;20274;-70
2023/04/10 05:02:21;;;;;;;;;;;14.10;82.30;;;;;;5114837;28;19999;-69
2023/04/10 05:04:47;;;;;;;;;;;14.10;82.40;;;;;;5113588;28;19923;-70
2023/04/10 05:07:12;;;;;;;;;;;14.10;82.40;;;;;;5112736;28;19915;-70
2023/04/10 05:09:38;;;;;;;;;;;14.10;82.40;;;;;;5114691;28;20006;-70
2023/04/10 05:12:03;;;;;;;;;;;14.10;82.40;;;;;;5114621;28;19908;-70
2023/04/10 05:14:29;;;;;;;;;;;14.10;82.40;;;;;;5114818;28;20355;-69
2023/04/10 05:16:54;;;;;;;;;;;14.10;82.40;;;;;;5114630;28;19957;-70
2023/04/10 05:19:20;;;;;;;;;;;14.10;82.50;;;;;;5114983;28;19950;-69
2023/04/10 05:21:45;;;;;;;;;;;14.00;82.40;;;;;;5114583;28;19911;-69
2023/04/10 05:24:11;;;;;;;;;;;14.00;82.40;;;;;;5114478;28;19915;-70
2023/04/10 05:26:36;;;;;;;;;;;14.00;82.40;;;;;;5113200;28;19908;-70
2023/04/10 05:29:02;;;;;;;;;;;14.10;82.50;;;;;;5114554;28;19915;-69
2023/04/10 05:31:28;;;;;;;;;;;14.00;83.00;;;;;;5113157;28;19939;-69
2023/04/10 05:33:53;;;;;;;;;;;14.00;82.40;;;;;;5113175;28;19908;-69
2023/04/10 05:36:19;;;;;;;;;;;14.00;82.40;;;;;;5114170;27;20381;-69
2023/04/10 05:38:44;;;;;;;;;;;14.00;82.50;;;;;;5114424;28;19908;-69
2023/04/10 05:41:10;;;;;;;;;;;14.00;82.50;;;;;;5114112;28;19964;-69
2023/04/10 05:43:35;;;;;;;;;;;14.00;82.50;;;;;;5114390;28;20018;-70
2023/04/10 05:46:01;;;;;;;;;;;14.00;82.50;;;;;;5113054;28;19998;-70
2023/04/10 05:48:27;;;;;;;;;;;14.00;82.50;;;;;;5114036;28;19914;-69
2023/04/10 05:50:53;;;;;;;;;;;14.00;82.60;;;;;;5114295;28;19915;-69
2023/04/10 05:53:19;;;;;;;;;;;14.00;82.50;;;;;;5113985;28;19908;-69
2023/04/10 05:55:44;;;;;;;;;;;14.00;82.60;;;;;;5114228;28;19908;-70
2023/04/10 05:58:10;;;;;;;;;;;14.00;82.60;;;;;;5113128;28;19966;-70
2023/04/10 06:00:36;;;;;;;;;;;14.00;82.60;;;;;;5112915;28;19994;-70
2023/04/10 06:03:02;;;;;;;;;;;14.00;82.60;;;;;;5114416;28;19916;-70
2023/04/10 06:05:27;;;;;;;;;;;14.00;82.60;;;;;;5113821;28;19947;-70
2023/04/10 06:07:53;;;;;;;;;;;14.00;82.60;;;;;;5113846;28;19947;-70
2023/04/10 06:10:18;;;;;;;;;;;14.00;82.60;;;;;;5112811;28;19907;-70
2023/04/10 06:12:44;;;;;;;;;;;14.00;82.70;;;;;;5114108;28;19915;-70
2023/04/10 06:15:09;;;;;;;;;;;14.00;82.70;;;;;;5112610;28;19927;-70
2023/04/10 06:17:40;;;;;;;;;;;14.00;82.70;;;;;;5113936;28;20185;-69
2023/04/10 06:20:06;;;;;;;;;;;14.00;82.70;;;;;;5117110;28;19908;-70
2023/04/10 06:22:31;;;;;;;;;;;14.00;82.70;;;;;;5117500;28;20003;-70
2023/04/10 06:24:56;;;;;;;;;;;14.00;82.80;;;;;;5117594;28;20320;-70
2023/04/10 06:27:22;;;;;;;;;;;14.00;82.80;;;;;;5116240;28;20312;-70
2023/04/10 06:29:47;;;;;;;;;;;14.00;82.80;;;;;;5117444;28;19908;-70
2023/04/10 06:32:13;;;;;;;;;;;13.90;82.70;;;;;;5116113;28;19908;-70
2023/04/10 06:34:38;;;;;;;;;;;14.00;82.80;;;;;;5117349;28;20412;-70
2023/04/10 06:37:04;;;;;;;;;;;13.90;82.70;;;;;;5115998;28;19915;-70
2023/04/10 06:39:29;;;;;;;;;;;13.90;82.80;;;;;;5116971;28;19908;-70
2023/04/10 06:41:56;;;;;;;;;;;13.90;82.80;;;;;;5116965;28;20011;-70
2023/04/10 06:44:22;;;;;;;;;;;13.90;82.80;;;;;;5117048;28;19922;-70
2023/04/10 06:46:47;;;;;;;;;;;13.90;82.80;;;;;;5117137;28;19908;-70
2023/04/10 06:49:13;;;;;;;;;;;13.90;82.80;;;;;;5115887;28;19915;-70
2023/04/10 06:51:38;;;;;;;;;;;13.90;82.90;;;;;;5115829;28;19908;-70
2023/04/10 06:54:04;;;;;;;;;;;13.90;82.90;;;;;;5116644;28;19915;-70
2023/04/10 06:56:29;;;;;;;;;;;13.90;82.90;;;;;;5115372;28;19953;-69
2023/04/10 06:58:55;;;;;;;;;;;13.90;82.90;;;;;;5117180;28;19911;-70
2023/04/10 07:01:20;;;;;;;;;;;13.90;82.90;;;;;;5116843;28;19938;-70
2023/04/10 07:03:46;;;;;;;;;;;13.90;82.90;;;;;;5116739;28;20346;-67
2023/04/10 07:06:11;;;;;;;;;;;13.90;82.90;;;;;;5117062;28;19915;-70
2023/04/10 07:08:37;;;;;;;;;;;13.90;83.00;;;;;;5116400;28;19908;-70
2023/04/10 07:11:02;;;;;;;;;;;13.90;83.00;;;;;;5116372;27;20381;-70
2023/04/10 07:13:28;;;;;;;;;;;13.90;83.00;;;;;;5116271;28;19919;-70
2023/04/10 07:15:53;;;;;;;;;;;13.90;83.10;;;;;;5116346;27;19994;-70
2023/04/10 07:18:19;;;;;;;;;;;13.90;83.10;;;;;;5115203;28;20285;-69
2023/04/10 07:20:44;;;;;;;;;;;13.90;83.10;;;;;;5115265;28;19908;-70
2023/04/10 07:23:10;;;;;;;;;;;13.90;83.10;;;;;;5116459;28;20285;-70
2023/04/10 07:25:36;;;;;;;;;;;13.80;83.00;;;;;;5116361;28;19957;-70
2023/04/10 07:28:01;;;;;;;;;;;13.90;83.10;;;;;;5114745;28;19943;-70
2023/04/10 07:30:27;;;;;;;;;;;13.90;83.10;;;;;;5115803;27;19931;-70
2023/04/10 07:32:52;;;;;;;;;;;13.90;83.20;;;;;;5115888;28;19930;-69
2023/04/10 07:35:18;;;;;;;;;;;13.90;83.20;;;;;;5116158;28;19908;-69
2023/04/10 07:37:45;;;;;;;;;;;13.90;83.20;;;;;;5116071;28;20007;-70
2023/04/10 07:40:11;;;;;;;;;;;13.90;83.20;;;;;;5116446;28;19915;-70
2023/04/10 07:42:36;;;;;;;;;;;13.80;83.20;;;;;;5115656;28;19920;-70
2023/04/10 07:45:02;;;;;;;;;;;13.80;83.20;;;;;;5115988;28;19912;-69
2023/04/10 07:47:29;;;;;;;;;;;13.80;83.20;;;;;;5114671;28;19959;-69
2023/04/10 07:49:55;;;;;;;;;;;13.80;83.20;;;;;;5114635;28;20003;-70
2023/04/10 07:52:20;;;;;;;;;;;13.80;83.20;;;;;;5114545;28;19912;-69
2023/04/10 07:54:46;;;;;;;;;;;13.90;83.30;;;;;;5115409;28;19918;-69
2023/04/10 07:57:11;;;;;;;;;;;13.80;83.20;;;;;;5116028;28;19907;-70
2023/04/10 07:59:37;;;;;;;;;;;13.80;83.30;;;;;;5115667;28;20379;-69
2023/04/10 08:02:02;;;;;;;;;;;13.80;83.10;;;;;;5115302;28;19930;-70
2023/04/10 08:04:28;;;;;;;;;;;13.80;83.30;;;;;;5115241;28;20014;-70
2023/04/10 08:06:53;;;;;;;;;;;13.80;83.30;;;;;;5115587;28;19915;-70
2023/04/10 08:09:19;;;;;;;;;;;13.80;83.30;;;;;;5114249;28;19912;-70
2023/04/10 08:11:44;;;;;;;;;;;13.80;83.30;;;;;;5115532;28;19969;-69
2023/04/10 08:14:10;;;;;;;;;;;13.80;83.40;;;;;;5115238;27;20309;-69
2023/04/10 08:16:37;;;;;;;;;;;13.80;83.40;;;;;;5114912;28;19919;-69
2023/04/10 08:19:02;;;;;;;;;;;13.80;83.40;;;;;;5114947;28;19908;-69
2023/04/10 08:21:28;;;;;;;;;;;13.80;83.40;;;;;;5115061;28;19998;-70
2023/04/10 08:23:55;;;;;;;;;;;13.80;83.40;;;;;;5115191;28;19911;-69
2023/04/10 08:26:21;;;;;;;;;;;13.80;83.50;;;;;;5115055;28;19916;-68
2023/04/10 08:28:50;;;;;;;;;;;13.80;83.40;;;;;;5113764;28;20011;-69
2023/04/10 08:31:16;;;;;;;;;;;13.80;83.40;;;;;;5115262;28;19964;-69
2023/04/10 08:33:42;;;;;;;;;;;13.70;83.40;;;;;;5113765;28;19908;-69
2023/04/10 08:36:08;;;;;;;;;;;13.80;83.50;;;;;;5115272;28;20410;-70
2023/04/10 08:38:33;;;;;;;;;;;13.80;83.50;;;;;;5114984;27;19915;-69
2023/04/10 08:40:59;;;;;;;;;;;13.70;83.40;;;;;;5113900;28;19908;-70
2023/04/10 08:43:24;;;;;;;;;;;13.70;83.40;;;;;;5114623;28;19920;-70
2023/04/10 08:45:51;;;;;;;;;;;13.70;83.40;;;;;;5113540;28;20373;-70
2023/04/10 08:48:18;;;;;;;;;;;13.70;83.30;;;;;;5113672;28;19912;-70
2023/04/10 08:50:44;;;;;;;;;;;13.70;83.40;;;;;;5114533;28;20358;-70
2023/04/10 08:53:11;;;;;;;;;;;13.70;83.10;;;;;;5114499;28;19912;-70
2023/04/10 08:55:38;;;;;;;;;;;13.70;83.40;;;;;;5113469;28;19908;-70
2023/04/10 08:58:03;;;;;;;;;;;13.70;83.30;;;;;;5113414;28;20351;-70
2023/04/10 09:00:33;;;;;;;;;;;13.70;83.60;;;;;;5114505;28;20002;-70
2023/04/10 09:02:59;;;;;;;;;;;13.70;83.50;;;;;;5114637;28;19916;-70
2023/04/10 09:05:28;;;;;;;;;;;13.70;83.40;;;;;;5114697;28;20266;-70
2023/04/10 09:07:54;;;;;;;;;;;13.70;83.40;;;;;;5114691;28;19908;-70
2023/04/10 09:10:19;;;;;;;;;;;13.60;83.30;;;;;;5114617;28;19908;-68
2023/04/10 09:12:46;;;;;;;;;;;13.60;83.30;;;;;;5114528;27;19908;-70
2023/04/10 09:15:12;;;;;;;;;;;13.70;83.40;;;;;;5114203;28;19914;-70
2023/04/10 09:17:53;;;;;;;;;;;13.60;83.40;;;;;;5114865;28;20351;-70
2023/04/10 09:20:21;;;;;;;;;;;13.60;83.40;;;;;;5114324;28;19996;-70
2023/04/10 09:22:47;;;;;;;;;;;13.60;83.40;;;;;;5114155;28;19908;-70
2023/04/10 09:25:35;;;;;;;;;;;13.60;83.40;;;;;;5113111;28;20007;-70
2023/04/10 09:28:01;;;;;;;;;;;13.60;83.50;;;;;;5114381;28;19912;-69
2023/04/10 09:30:33;;;;;;;;;;;13.60;83.60;;;;;;5114454;27;19907;-70
2023/04/10 09:32:58;;;;;;;;;;;13.60;83.50;;;;;;5113012;28;20384;-70
2023/04/10 09:35:33;;;;;;;;;;;13.60;83.50;;;;;;5114086;28;19908;-70
2023/04/10 09:37:59;;;;;;;;;;;13.60;83.50;;;;;;5113058;28;19911;-70
2023/04/10 09:40:24;;;;;;;;;;;13.50;83.60;;;;;;5113019;28;20262;-70
2023/04/10 09:42:50;;;;;;;;;;;13.60;83.60;;;;;;5113840;28;19919;-68
2023/04/10 09:45:18;;;;;;;;;;;13.50;83.60;;;;;;5114221;28;19923;-71
2023/04/10 09:47:59;;;;;;;;;;;13.50;83.50;;;;;;5114202;28;19908;-70
2023/04/10 09:50:32;;;;;;;;;;;13.50;83.70;;;;;;5113126;28;19915;-70
2023/04/10 09:52:58;;;;;;;;;;;13.50;83.70;;;;;;5114935;28;20288;-70
2023/04/10 09:55:23;;;;;;;;;;;13.50;83.70;;;;;;5118094;28;19908;-70
2023/04/10 09:57:49;;;;;;;;;;;13.50;83.70;;;;;;5117776;28;19915;-70
2023/04/10 10:00:15;;;;;;;;;;;13.50;83.70;;;;;;5117885;28;19908;-69
2023/04/10 10:02:41;;;;;;;;;;;13.50;83.80;;;;;;5117844;28;20351;-69
2023/04/10 10:05:06;;;;;;;;;;;13.50;83.70;;;;;;5116648;28;19930;-69
2023/04/10 10:07:32;;;;;;;;;;;13.50;83.60;;;;;;5117965;28;19908;-70
2023/04/10 10:09:58;;;;;;;;;;;13.50;83.60;;;;;;5117906;28;20374;-69
2023/04/10 10:12:34;;;;;;;;;;;13.50;83.60;;;;;;5117809;28;19914;-71
2023/04/10 10:15:00;;;;;;;;;;;13.50;83.70;;;;;;5117450;28;19908;-69
2023/04/10 10:17:28;;;;;;;;;;;13.50;83.50;;;;;;5117845;28;19926;-69
2023/04/10 10:20:01;;;;;;;;;;;13.50;83.40;;;;;;5117729;28;19915;-69
2023/04/10 10:22:27;;;;;;;;;;;13.50;83.40;;;;;;5117319;28;19915;-69
2023/04/10 10:24:55;;;;;;;;;;;13.50;83.30;;;;;;5117439;28;20373;-69
2023/04/10 10:27:22;;;;;;;;;;;13.50;83.10;;;;;;5117470;28;19907;-68
2023/04/10 10:29:48;;;;;;;;;;;13.50;83.00;;;;;;5117863;28;19961;-69
2023/04/10 10:32:15;;;;;;;;;;;13.50;83.30;;;;;;5116090;28;19915;-69
2023/04/10 10:34:41;;;;;;;;;;;13.50;83.30;;;;;;5116122;28;19907;-69
2023/04/10 10:37:06;;;;;;;;;;;13.50;83.40;;;;;;5115782;28;19908;-69
2023/04/10 10:39:46;;;;;;;;;;;13.50;83.50;;;;;;5116095;28;19915;-69
2023/04/10 10:42:11;;;;;;;;;;;13.50;83.50;;;;;;5116768;28;19923;-69
2023/04/10 10:44:37;;;;;;;;;;;13.50;83.40;;;;;;5116697;28;20316;-69
2023/04/10 10:47:14;;;;;;;;;;;13.40;83.50;;;;;;5117529;28;20259;-69
2023/04/10 10:50:09;;;;;;;;;;;13.50;83.40;;;;;;5117054;28;19912;-69
2023/04/10 10:52:38;;;;;;;;;;;13.50;83.60;;;;;;5107665;27;19915;-69
2023/04/10 10:55:33;;;;;;;;;;;13.50;83.30;;;;;;5117163;28;20403;-69
2023/04/10 10:58:00;;;;;;;;;;;13.50;83.20;;;;;;5115694;28;19915;-69
2023/04/10 11:00:45;;;;;;;;;;;13.50;83.30;;;;;;5116884;28;19996;-69
2023/04/10 11:03:14;;;;;;;;;;;13.50;83.50;;;;;;5116582;28;20278;-70
2023/04/10 11:05:52;;;;;;;;;;;13.50;83.60;;;;;;5115997;28;20397;-70
2023/04/10 11:08:42;;;;;;;;;;;13.50;83.60;;;;;;5116715;27;19952;-70
2023/04/10 11:11:18;;;;;;;;;;;13.50;83.70;;;;;;5117097;27;19915;-69
2023/04/10 11:13:50;;;;;;;;;;;13.40;83.70;;;;;;5116745;28;19912;-69
2023/04/10 11:16:16;;;;;;;;;;;13.50;83.90;;;;;;5116337;28;19958;-69
2023/04/10 11:18:47;;;;;;;;;;;13.50;84.10;;;;;;5116099;28;19908;-69
2023/04/10 11:21:17;;;;;;;;;;;13.60;84.00;;;;;;5116349;28;20388;-69
2023/04/10 11:23:57;;;;;;;;;;;13.70;83.70;;;;;;5116308;28;20049;-70
2023/04/10 11:26:43;;;;;;;;;;;13.80;83.60;;;;;;5116393;28;19911;-67
2023/04/10 11:29:11;;;;;;;;;;;13.90;83.50;;;;;;5115946;27;19915;-69
2023/04/10 11:31:37;;;;;;;;;;;14.00;83.40;;;;;;5115845;28;19994;-69
2023/04/10 11:34:05;;;;;;;;;;;14.10;82.90;;;;;;5115780;27;20362;-69
2023/04/10 11:36:31;;;;;;;;;;;14.20;82.70;;;;;;5116007;28;19907;-69
2023/04/10 11:38:59;;;;;;;;;;;14.30;82.40;;;;;;5115888;28;19942;-70
2023/04/10 11:41:35;;;;;;;;;;;14.40;82.20;;;;;;5116256;28;19940;-69
2023/04/10 11:44:02;;;;;;;;;;;14.50;82.10;;;;;;5114036;28;19927;-69
2023/04/10 11:46:27;;;;;;;;;;;14.50;81.90;;;;;;5115908;28;19908;-69
2023/04/10 11:49:00;;;;;;;;;;;14.50;81.70;;;;;;5115627;28;19962;-67
2023/04/10 11:51:28;;;;;;;;;;;14.50;81.70;;;;;;5114364;28;19914;-69
2023/04/10 11:54:09;;;;;;;;;;;14.60;81.80;;;;;;5115688;28;19908;-68
2023/04/10 11:56:36;;;;;;;;;;;14.60;81.70;;;;;;5115369;28;19908;-69
2023/04/10 11:59:06;;;;;;;;;;;14.50;81.70;;;;;;5115420;28;19908;-69
2023/04/10 12:01:31;;;;;;;;;;;14.60;81.70;;;;;;5115683;28;20297;-69
2023/04/10 12:03:57;;;;;;;;;;;14.50;81.70;;;;;;5115047;27;19922;-69
2023/04/10 12:06:22;;;;;;;;;;;14.50;81.70;;;;;;5115517;28;19907;-69
2023/04/10 12:08:49;;;;;;;;;;;14.50;81.70;;;;;;5114904;28;20270;-69
2023/04/10 12:11:19;;;;;;;;;;;14.50;81.70;;;;;;5115040;28;20311;-69
2023/04/10 12:13:45;;;;;;;;;;;14.50;81.70;;;;;;5114133;28;19915;-69
2023/04/10 12:16:10;;;;;;;;;;;14.50;81.70;;;;;;5114971;28;19908;-69
2023/04/10 12:18:36;;;;;;;;;;;14.50;81.70;;;;;;5115344;28;19912;-69
2023/04/10 12:21:03;;;;;;;;;;;14.50;81.70;;;;;;5115082;27;19912;-69
2023/04/10 12:23:29;;;;;;;;;;;14.50;81.70;;;;;;5115014;27;19916;-69
2023/04/10 12:26:09;;;;;;;;;;;14.50;81.70;;;;;;5115139;27;19994;-68
2023/04/10 12:28:35;;;;;;;;;;;14.50;81.70;;;;;;5115488;28;19907;-69
2023/04/10 12:31:02;;;;;;;;;;;14.50;81.70;;;;;;5113831;28;19915;-69
2023/04/10 12:33:27;;;;;;;;;;;14.50;81.70;;;;;;5114826;28;20354;-69
2023/04/10 12:35:53;;;;;;;;;;;14.50;81.70;;;;;;5113875;28;19915;-69
2023/04/10 12:38:38;;;;;;;;;;;14.50;81.70;;;;;;5114963;28;20258;-69
2023/04/10 12:41:03;;;;;;;;;;;14.50;81.70;;;;;;5114923;28;19912;-69
2023/04/10 12:43:40;;;;;;;;;;;14.50;81.70;;;;;;5112713;28;20126;-69
2023/04/10 12:46:07;;;;;;;;;;;14.50;81.70;;;;;;5114558;28;20431;-69
2023/04/10 12:48:33;;;;;;;;;;;14.50;81.70;;;;;;5113871;28;19918;-70
2023/04/10 12:50:58;;;;;;;;;;;14.50;81.70;;;;;;5114780;28;20360;-69
2023/04/10 12:53:24;;;;;;;;;;;14.50;81.70;;;;;;5113321;28;19908;-70
2023/04/10 12:55:59;;;;;;;;;;;14.50;81.70;;;;;;5113476;28;19908;-69
2023/04/10 12:58:29;;;;;;;;;;;14.50;81.60;;;;;;5114685;28;19908;-67
2023/04/10 13:00:55;;;;;;;;;;;14.50;81.60;;;;;;5114743;28;19915;-69
2023/04/10 13:03:21;;;;;;;;;;;14.60;81.60;;;;;;5114613;28;20335;-69
2023/04/10 13:05:46;;;;;;;;;;;14.60;81.60;;;;;;5114644;28;19907;-69
2023/04/10 13:08:12;;;;;;;;;;;14.60;81.40;;;;;;5113145;28;19908;-69
2023/04/10 13:10:39;;;;;;;;;;;14.60;81.30;;;;;;5114324;28;19933;-69
2023/04/10 13:13:05;;;;;;;;;;;14.70;81.90;;;;;;5114582;28;20235;-70
2023/04/10 13:15:33;;;;;;;;;;;14.70;81.30;;;;;;5114227;28;20380;-69
2023/04/10 13:17:59;;;;;;;;;;;14.70;81.30;;;;;;5112791;28;19908;-69
2023/04/10 13:20:24;;;;;;;;;;;14.70;81.20;;;;;;5114377;28;19915;-70
2023/04/10 13:22:50;;;;;;;;;;;14.70;81.20;;;;;;5114356;27;19908;-70
2023/04/10 13:25:15;;;;;;;;;;;14.70;81.20;;;;;;5114123;28;19994;-70
2023/04/10 13:27:41;;;;;;;;;;;14.70;81.20;;;;;;5115812;28;20386;-70
2023/04/10 13:30:07;;;;;;;;;;;14.70;81.20;;;;;;5118769;28;19911;-70
2023/04/10 13:32:32;;;;;;;;;;;14.70;81.20;;;;;;5117251;28;19916;-69
2023/04/10 13:34:57;;;;;;;;;;;14.70;81.20;;;;;;5117168;28;20015;-71
2023/04/10 13:37:23;;;;;;;;;;;14.70;81.20;;;;;;5117016;28;19931;-69
2023/04/10 13:39:48;;;;;;;;;;;14.70;81.20;;;;;;5118491;28;19943;-70
2023/04/10 13:42:14;;;;;;;;;;;14.70;81.20;;;;;;5118066;28;19972;-70
2023/04/10 13:44:39;;;;;;;;;;;14.70;81.20;;;;;;5116840;28;20243;-70
2023/04/10 13:47:05;;;;;;;;;;;14.70;81.10;;;;;;5117897;28;19923;-70
2023/04/10 13:49:30;;;;;;;;;;;14.70;81.10;;;;;;5118291;28;19914;-69
2023/04/10 13:51:56;;;;;;;;;;;14.70;81.10;;;;;;5118236;28;19918;-69
2023/04/10 13:54:22;;;;;;;;;;;14.70;81.10;;;;;;5118212;28;19961;-70
2023/04/10 13:56:49;;;;;;;;;;;14.70;81.10;;;;;;5116677;28;20262;-70
2023/04/10 13:59:15;;;;;;;;;;;14.70;81.00;;;;;;5118136;27;19923;-70
2023/04/10 14:01:40;;;;;;;;;;;14.80;81.00;;;;;;5117773;28;20332;-70
2023/04/10 14:04:06;;;;;;;;;;;14.80;80.90;;;;;;5118093;28;19963;-70
2023/04/10 14:06:31;;;;;;;;;;;14.90;80.80;;;;;;5117651;28;19908;-69
2023/04/10 14:08:57;;;;;;;;;;;14.90;80.80;;;;;;5118003;28;19908;-69
2023/04/10 14:11:22;;;;;;;;;;;14.90;80.70;;;;;;5118152;28;19961;-70
2023/04/10 14:13:48;;;;;;;;;;;14.90;80.70;;;;;;5117735;28;19915;-70
2023/04/10 14:16:13;;;;;;;;;;;14.90;80.70;;;;;;5117481;28;20274;-71